Time;durP1;ratioP1;P1;durP2;ratioP2;P2;SDS_P1;SDS_P2;PMS_P1;PMS_P2;Temp;Humidity;BMP_temperature;BMP_pressure;BME280_temperature;BME280_humidity;BME280_pressure;Samples;Min_cycle;Max_cycle;Signal;HPM_P1;HPM_P2
2021/05/03 00:01:39;;;;;;;85.82;51.38;;;17.40;73.40;;;;;;5075410;28;20024;-64
2021/05/03 00:04:05;;;;;;;90.53;50.95;;;17.40;73.70;;;;;;5075678;28;20032;-64
2021/05/03 00:06:31;;;;;;;87.78;48.47;;;17.40;73.80;;;;;;5075356;28;20032;-64
2021/05/03 00:08:56;;;;;;;83.45;49.17;;;17.40;73.80;;;;;;5075197;28;20024;-64
2021/05/03 00:11:22;;;;;;;82.60;47.38;;;17.30;73.80;;;;;;5075307;28;20435;-64
2021/05/03 00:13:48;;;;;;;80.47;46.05;;;17.30;73.90;;;;;;5075134;28;20468;-64
2021/05/03 00:16:13;;;;;;;79.55;47.25;;;17.20;74.10;;;;;;5056980;28;20385;-64
2021/05/03 00:18:39;;;;;;;80.03;46.95;;;17.20;74.20;;;;;;5075070;28;20056;-64
2021/05/03 00:21:05;;;;;;;83.00;46.67;;;17.20;74.50;;;;;;5075010;28;20033;-64
2021/05/03 00:23:30;;;;;;;81.10;46.80;;;17.20;74.50;;;;;;5074825;28;20049;-64
2021/05/03 00:25:56;;;;;;;85.63;49.58;;;17.20;74.70;;;;;;5075076;28;20028;-64
2021/05/03 00:28:22;;;;;;;80.10;45.83;;;17.20;74.70;;;;;;5074923;28;20386;-64
2021/05/03 00:30:47;;;;;;;79.20;45.78;;;17.20;74.80;;;;;;5074937;28;20067;-64
2021/05/03 00:33:13;;;;;;;78.82;46.92;;;17.20;74.90;;;;;;5074529;28;20494;-64
2021/05/03 00:35:39;;;;;;;83.00;43.45;;;17.10;75.00;;;;;;5074488;28;20107;-64
2021/05/03 00:38:05;;;;;;;77.80;44.22;;;17.20;75.10;;;;;;5074538;28;20033;-64
2021/05/03 00:40:31;;;;;;;72.38;43.20;;;17.10;75.20;;;;;;5074606;28;20413;-64
2021/05/03 00:42:57;;;;;;;75.40;43.55;;;17.10;75.10;;;;;;5074513;28;20028;-64
2021/05/03 00:45:23;;;;;;;68.97;41.00;;;17.10;75.40;;;;;;5074905;28;20036;-64
2021/05/03 00:47:50;;;;;;;73.10;41.35;;;17.10;75.60;;;;;;5074496;28;20020;-64
2021/05/03 00:50:18;;;;;;;72.13;41.85;;;17.10;75.40;;;;;;5056550;28;20539;-64
2021/05/03 00:52:44;;;;;;;71.40;39.28;;;17.10;75.60;;;;;;5073860;28;20062;-64
2021/05/03 00:55:11;;;;;;;74.15;42.42;;;17.10;75.20;;;;;;5056703;28;20024;-64
2021/05/03 00:57:38;;;;;;;67.25;40.15;;;17.10;75.30;;;;;;5074527;28;20082;-64
2021/05/03 01:00:07;;;;;;;67.05;39.30;;;17.20;75.50;;;;;;5074016;28;20035;-64
2021/05/03 01:02:33;;;;;;;66.70;38.17;;;17.30;75.00;;;;;;5074245;28;20040;-64
2021/05/03 01:04:59;;;;;;;69.05;38.30;;;17.30;74.60;;;;;;5056706;28;20267;-64
2021/05/03 01:07:24;;;;;;;67.63;38.45;;;17.40;74.70;;;;;;5074467;28;20024;-64
2021/05/03 01:09:50;;;;;;;69.55;39.03;;;17.40;74.60;;;;;;5056587;28;20091;-64
2021/05/03 01:12:16;;;;;;;56.95;35.67;;;17.30;74.50;;;;;;5074153;28;20382;-64
2021/05/03 01:14:41;;;;;;;70.88;38.25;;;17.30;74.50;;;;;;5073722;28;20026;-64
2021/05/03 01:17:07;;;;;;;54.53;33.60;;;17.20;74.60;;;;;;5073949;28;20103;-64
2021/05/03 01:19:33;;;;;;;62.42;35.85;;;17.20;74.70;;;;;;5056307;28;20541;-64
2021/05/03 01:21:59;;;;;;;59.58;36.30;;;17.20;74.80;;;;;;5074166;28;20025;-64
2021/05/03 01:24:24;;;;;;;58.88;36.90;;;17.20;74.90;;;;;;5073665;28;20051;-64
2021/05/03 01:26:51;;;;;;;57.20;35.75;;;17.10;75.00;;;;;;5073731;28;20466;-64
2021/05/03 01:29:17;;;;;;;56.92;34.65;;;17.20;75.10;;;;;;5073822;28;20071;-64
2021/05/03 01:31:51;;;;;;;56.92;34.03;;;17.10;75.00;;;;;;5073873;28;20044;-64
2021/05/03 01:34:17;;;;;;;56.13;32.92;;;17.10;75.00;;;;;;5073671;28;20024;-64
2021/05/03 01:36:45;;;;;;;61.00;34.25;;;17.10;75.00;;;;;;5073803;28;20028;-64
2021/05/03 01:39:12;;;;;;;56.05;33.60;;;17.10;75.10;;;;;;5073650;28;20473;-64
2021/05/03 01:41:38;;;;;;;51.75;31.08;;;17.10;75.00;;;;;;5073670;28;20029;-64
2021/05/03 01:44:06;;;;;;;53.95;32.63;;;17.10;75.10;;;;;;5055715;28;20029;-64
2021/05/03 01:46:34;;;;;;;61.38;32.65;;;17.10;75.20;;;;;;5073588;28;20025;-64
2021/05/03 01:49:02;;;;;;;57.17;32.42;;;17.00;75.20;;;;;;5073653;28;20036;-64
2021/05/03 01:51:29;;;;;;;54.83;29.77;;;17.00;75.20;;;;;;5073607;28;20035;-64
2021/05/03 01:53:56;;;;;;;53.88;30.25;;;17.00;75.20;;;;;;5073609;28;20029;-64
2021/05/03 01:56:24;;;;;;;50.45;31.13;;;17.00;75.30;;;;;;5056107;28;20355;-64
2021/05/03 01:58:51;;;;;;;54.38;28.85;;;17.00;75.40;;;;;;5073583;28;20020;-64
2021/05/03 02:01:16;;;;;;;46.35;27.98;;;17.10;75.20;;;;;;5073427;28;20513;-64
2021/05/03 02:03:42;;;;;;;49.63;30.88;;;17.10;74.80;;;;;;5056344;28;20032;-64
2021/05/03 02:06:08;;;;;;;41.30;26.40;;;17.10;74.60;;;;;;5077867;28;20377;-64
2021/05/03 02:08:33;;;;;;;47.10;29.27;;;17.10;75.20;;;;;;5077610;28;20024;-64
2021/05/03 02:10:59;;;;;;;46.83;26.88;;;17.20;74.70;;;;;;5077277;28;20017;-64
2021/05/03 02:13:26;;;;;;;46.05;27.60;;;17.40;73.90;;;;;;5077292;28;20024;-64
2021/05/03 02:15:52;;;;;;;49.63;27.58;;;17.40;73.20;;;;;;5077393;28;20083;-64
2021/05/03 02:18:18;;;;;;;45.10;25.10;;;17.50;72.90;;;;;;5077317;28;20489;-64
2021/05/03 02:20:45;;;;;;;45.80;26.70;;;17.50;72.70;;;;;;5077307;28;20095;-64
2021/05/03 02:23:13;;;;;;;42.38;24.33;;;17.70;72.70;;;;;;5076835;28;20043;-66
2021/05/03 02:25:38;;;;;;;41.35;24.40;;;17.80;71.70;;;;;;5077546;28;20119;-64
2021/05/03 02:28:04;;;;;;;43.78;25.27;;;18.00;70.90;;;;;;5077267;28;20100;-64
2021/05/03 02:30:30;;;;;;;40.00;22.60;;;18.10;70.50;;;;;;5077354;28;20469;-64
2021/05/03 02:32:56;;;;;;;37.65;23.95;;;18.30;69.90;;;;;;5059203;28;20038;-64
2021/05/03 02:35:24;;;;;;;37.42;22.77;;;18.40;69.40;;;;;;5077094;28;20062;-64
2021/05/03 02:37:54;;;;;;;42.13;23.60;;;18.40;69.10;;;;;;5076985;28;20040;-65
2021/05/03 02:40:20;;;;;;;35.58;22.20;;;18.50;68.90;;;;;;5077243;28;20493;-64
2021/05/03 02:42:50;;;;;;;35.85;21.98;;;18.50;68.80;;;;;;5077057;28;20033;-64
2021/05/03 02:45:17;;;;;;;34.03;20.92;;;18.50;68.80;;;;;;5077007;28;20044;-64
2021/05/03 02:47:43;;;;;;;37.83;22.08;;;18.50;68.80;;;;;;5076766;28;20035;-64
2021/05/03 02:50:10;;;;;;;34.63;21.00;;;18.50;69.00;;;;;;5076752;28;20351;-64
2021/05/03 02:52:36;;;;;;;32.42;19.30;;;18.50;68.90;;;;;;5076459;28;20029;-64
2021/05/03 02:55:03;;;;;;;32.90;19.73;;;18.50;68.90;;;;;;5059101;28;20031;-64
2021/05/03 02:57:28;;;;;;;29.58;18.67;;;18.50;69.00;;;;;;5076628;28;20046;-64
2021/05/03 02:59:54;;;;;;;33.30;19.35;;;18.50;68.90;;;;;;5076917;28;20486;-64
2021/05/03 03:02:19;;;;;;;34.08;20.50;;;18.40;69.00;;;;;;5076533;28;20077;-64
2021/05/03 03:04:45;;;;;;;35.00;19.45;;;18.40;69.20;;;;;;5076322;28;20028;-64
2021/05/03 03:07:11;;;;;;;34.13;18.67;;;18.40;69.20;;;;;;5058208;28;20119;-64
2021/05/03 03:09:36;;;;;;;33.83;19.80;;;18.40;68.80;;;;;;5076508;28;20032;-64
2021/05/03 03:12:03;;;;;;;32.38;19.08;;;18.50;68.70;;;;;;5076625;28;20474;-64
2021/05/03 03:14:29;;;;;;;34.17;19.52;;;18.50;68.60;;;;;;5075877;28;20102;-64
2021/05/03 03:16:55;;;;;;;37.67;19.58;;;18.50;68.40;;;;;;5076363;28;20029;-64
2021/05/03 03:19:20;;;;;;;32.80;18.60;;;18.60;68.40;;;;;;5076301;28;20020;-66
2021/05/03 03:21:46;;;;;;;29.45;17.42;;;18.50;68.60;;;;;;5075951;28;20025;-65
2021/05/03 03:24:12;;;;;;;26.88;15.55;;;18.40;68.80;;;;;;5075974;28;20049;-65
2021/05/03 03:26:38;;;;;;;31.05;17.85;;;18.40;69.00;;;;;;5075947;28;20024;-64
2021/05/03 03:29:04;;;;;;;27.98;17.77;;;18.30;69.00;;;;;;5075956;28;20103;-64
2021/05/03 03:31:30;;;;;;;28.45;16.25;;;18.30;69.00;;;;;;5076069;28;20024;-64
2021/05/03 03:33:56;;;;;;;27.75;16.50;;;18.30;69.00;;;;;;5075959;28;20375;-65
2021/05/03 03:36:22;;;;;;;27.40;16.83;;;18.30;69.00;;;;;;5075998;28;20100;-65
2021/05/03 03:38:48;;;;;;;25.48;15.05;;;18.30;69.00;;;;;;5075727;28;20036;-64
2021/05/03 03:41:13;;;;;;;30.17;16.35;;;18.30;69.00;;;;;;5075986;28;20434;-64
2021/05/03 03:43:40;;;;;;;29.00;15.77;;;18.20;69.00;;;;;;5075739;28;20040;-64
2021/05/03 03:46:06;;;;;;;24.17;14.77;;;18.20;69.10;;;;;;5075553;28;20468;-64
2021/05/03 03:48:32;;;;;;;32.10;17.48;;;18.20;69.20;;;;;;5075748;28;20039;-64
2021/05/03 03:50:58;;;;;;;25.58;15.45;;;18.20;69.20;;;;;;5075695;28;20032;-65
2021/05/03 03:53:23;;;;;;;22.05;13.82;;;18.10;69.40;;;;;;5091218;28;20036;-65
2021/05/03 03:55:49;;;;;;;26.70;14.80;;;18.10;69.30;;;;;;5075629;28;20046;-64
2021/05/03 03:58:15;;;;;;;23.45;13.40;;;18.10;69.30;;;;;;5075610;28;20111;-64
2021/05/03 04:00:40;;;;;;;25.90;14.77;;;18.10;69.40;;;;;;5075789;28;20351;-64
2021/05/03 04:03:07;;;;;;;23.35;13.98;;;18.10;69.30;;;;;;5075076;28;20032;-65
2021/05/03 04:08:23;;;;;;;24.38;13.52;;;18.00;69.40;;;;;;5075442;28;20033;-64
2021/05/03 04:11:14;;;;;;;21.70;13.18;;;18.00;69.50;;;;;;5075299;28;20020;-64
2021/05/03 04:21:59;;;;;;;21.50;13.00;;;18.00;69.40;;;;;;5075094;28;20417;-64
2021/05/03 04:24:40;;;;;;;21.48;12.57;;;18.00;69.40;;;;;;5075019;28;20048;-64
2021/05/03 04:27:06;;;;;;;18.60;10.77;;;18.00;69.30;;;;;;5074182;28;20071;-64
2021/05/03 04:29:31;;;;;;;17.27;10.70;;;18.00;70.00;;;;;;5075043;28;20478;-64
2021/05/03 04:31:57;;;;;;;16.88;11.38;;;17.90;69.20;;;;;;5074905;28;20138;-64
2021/05/03 04:34:22;;;;;;;21.35;13.32;;;18.00;69.20;;;;;;5074783;28;20048;-65
2021/05/03 04:36:48;;;;;;;20.58;11.77;;;17.90;69.20;;;;;;5074572;28;20020;-64
2021/05/03 04:39:14;;;;;;;19.70;11.45;;;17.90;69.20;;;;;;5075307;28;20051;-64
2021/05/03 04:41:39;;;;;;;18.23;10.32;;;17.90;69.20;;;;;;5074680;28;20017;-64
2021/05/03 04:44:05;;;;;;;17.33;10.48;;;17.90;69.30;;;;;;5074293;28;20036;-64
2021/05/03 04:46:31;;;;;;;15.80;9.85;;;17.90;69.40;;;;;;5074453;28;20033;-64
2021/05/03 04:48:56;;;;;;;16.80;10.18;;;17.80;69.30;;;;;;5074466;28;20074;-65
2021/05/03 04:51:23;;;;;;;17.75;9.90;;;17.80;69.30;;;;;;5074508;28;20033;-64
2021/05/03 04:53:48;;;;;;;18.63;9.77;;;17.80;69.20;;;;;;5074229;28;20033;-64
2021/05/03 04:56:14;;;;;;;17.85;10.63;;;17.80;69.30;;;;;;5074411;28;20028;-64
2021/05/03 04:58:40;;;;;;;17.90;10.48;;;17.80;69.30;;;;;;5074116;28;20420;-64
2021/05/03 05:01:06;;;;;;;18.20;9.85;;;17.80;69.30;;;;;;5074225;28;20027;-64
2021/05/03 05:03:32;;;;;;;16.80;8.77;;;17.70;69.30;;;;;;5056163;28;20082;-64
2021/05/03 05:05:57;;;;;;;19.13;10.27;;;17.70;69.30;;;;;;5074212;28;20021;-65
2021/05/03 05:08:23;;;;;;;17.65;9.98;;;17.70;69.30;;;;;;5074359;28;20028;-65
2021/05/03 05:10:50;;;;;;;16.30;9.52;;;17.70;69.30;;;;;;5074251;28;20021;-64
2021/05/03 05:13:15;;;;;;;16.42;9.90;;;17.70;69.30;;;;;;5074050;28;20036;-64
2021/05/03 05:15:41;;;;;;;16.80;9.38;;;17.70;69.30;;;;;;5055726;28;20119;-65
2021/05/03 05:18:08;;;;;;;15.63;9.65;;;17.60;69.40;;;;;;5073713;28;20107;-67
2021/05/03 05:20:34;;;;;;;16.25;9.98;;;17.60;69.50;;;;;;5074015;28;20024;-65
2021/05/03 05:23:03;;;;;;;17.02;9.05;;;17.60;69.60;;;;;;5073753;28;20043;-64
2021/05/03 05:25:29;;;;;;;16.42;9.32;;;17.70;69.20;;;;;;5073455;28;20040;-64
2021/05/03 05:27:55;;;;;;;14.73;8.63;;;17.70;68.80;;;;;;5073724;28;20051;-65
2021/05/03 05:30:21;;;;;;;14.35;8.93;;;17.70;68.90;;;;;;5074186;28;20107;-65
2021/05/03 05:32:46;;;;;;;17.85;9.35;;;17.70;69.30;;;;;;5055539;28;20056;-64
2021/05/03 05:35:12;;;;;;;15.40;9.25;;;17.60;69.40;;;;;;5073841;28;20104;-64
2021/05/03 05:37:38;;;;;;;15.93;8.52;;;17.50;69.30;;;;;;5074023;28;20029;-64
2021/05/03 05:40:05;;;;;;;15.07;8.10;;;17.50;69.40;;;;;;5073707;28;20032;-64
2021/05/03 05:42:31;;;;;;;13.95;8.60;;;17.50;69.60;;;;;;5074124;28;20059;-62
2021/05/03 05:44:57;;;;;;;16.63;8.77;;;17.50;69.60;;;;;;5073415;28;20390;-64
2021/05/03 05:47:22;;;;;;;15.25;9.05;;;17.50;69.60;;;;;;5073810;28;20074;-70
2021/05/03 05:49:48;;;;;;;15.23;8.05;;;17.60;69.60;;;;;;5073533;28;20027;-65
2021/05/03 05:52:14;;;;;;;15.38;8.45;;;17.70;70.00;;;;;;5073406;28;20366;-61
2021/05/03 05:54:42;;;;;;;17.50;8.73;;;17.70;70.00;;;;;;5073273;28;20016;-61
2021/05/03 05:57:08;;;;;;;15.18;8.52;;;17.70;70.00;;;;;;5073557;28;20367;-61
2021/05/03 05:59:34;;;;;;;17.27;9.40;;;17.60;70.00;;;;;;5073220;28;20027;-65
2021/05/03 06:01:59;;;;;;;14.05;8.80;;;17.70;70.10;;;;;;5073632;28;20044;-66
2021/05/03 06:04:25;;;;;;;12.80;8.13;;;17.60;70.10;;;;;;5073534;28;20025;-65
2021/05/03 06:06:52;;;;;;;13.80;7.72;;;17.70;70.20;;;;;;5073434;28;20024;-65
2021/05/03 06:09:18;;;;;;;13.95;8.00;;;17.70;70.30;;;;;;5071623;28;20474;-66
2021/05/03 06:11:44;;;;;;;15.00;8.32;;;17.60;70.40;;;;;;5071807;28;20035;-68
2021/05/03 06:14:09;;;;;;;16.33;9.68;;;17.60;70.50;;;;;;5070781;28;20032;-68
2021/05/03 06:16:35;;;;;;;15.43;8.25;;;17.70;70.40;;;;;;5071248;28;20052;-67
2021/05/03 06:19:01;;;;;;;14.82;7.90;;;17.70;69.60;;;;;;5071207;28;20105;-71
2021/05/03 06:21:27;;;;;;;16.60;7.93;;;17.70;69.40;;;;;;5071217;28;20024;-65
2021/05/03 06:23:53;;;;;;;13.10;7.82;;;17.70;69.30;;;;;;5070955;28;20468;-69
2021/05/03 06:26:19;;;;;;;11.77;6.97;;;17.70;69.00;;;;;;5071536;28;20099;-69
2021/05/03 06:28:45;;;;;;;16.60;8.13;;;17.80;68.80;;;;;;5073205;28;20036;-65
2021/05/03 06:31:10;;;;;;;13.95;7.60;;;17.90;68.30;;;;;;5073504;28;20025;-72
2021/05/03 06:33:36;;;;;;;12.90;7.15;;;18.00;68.30;;;;;;5073427;28;20037;-67
2021/05/03 06:36:03;;;;;;;33.90;19.83;;;18.00;67.00;;;;;;5073371;28;20054;-66
2021/05/03 06:38:28;;;;;;;43.65;26.45;;;18.00;64.10;;;;;;5072906;28;20028;-65
2021/05/03 06:40:54;;;;;;;56.92;32.67;;;18.00;63.30;;;;;;5073132;28;20367;-68
2021/05/03 06:43:20;;;;;;;57.88;33.33;;;18.00;62.40;;;;;;5072915;28;20119;-65
2021/05/03 06:45:45;;;;;;;70.18;38.80;;;18.00;61.40;;;;;;5073180;28;20382;-67
2021/05/03 06:48:12;;;;;;;59.58;33.25;;;17.80;59.80;;;;;;5072911;28;20394;-64
2021/05/03 06:50:41;;;;;;;66.55;39.15;;;17.80;59.00;;;;;;5074946;28;20029;-65
2021/05/03 06:53:07;;;;;;;50.95;27.25;;;17.60;59.60;;;;;;5076524;28;20038;-64
2021/05/03 06:55:33;;;;;;;106.75;63.08;;;17.60;57.50;;;;;;5076724;28;20104;-66
2021/05/03 06:57:58;;;;;;;89.20;54.50;;;17.50;57.20;;;;;;5076580;28;20028;-63
2021/05/03 07:00:25;;;;;;;112.95;66.95;;;17.40;56.50;;;;;;5076868;28;20469;-62
2021/05/03 07:02:51;;;;;;;123.55;74.05;;;17.40;53.10;;;;;;5076424;28;20385;-63
2021/05/03 07:05:17;;;;;;;205.77;136.48;;;17.30;51.80;;;;;;5076328;28;20115;-65
2021/05/03 07:07:43;;;;;;;132.98;87.03;;;17.30;52.50;;;;;;5076419;28;20100;-67
2021/05/03 07:10:09;;;;;;;124.28;76.97;;;17.20;54.10;;;;;;5076414;28;20024;-67
2021/05/03 07:12:43;;;;;;;105.57;62.80;;;17.20;54.20;;;;;;5076091;28;20032;-67
2021/05/03 07:15:10;;;;;;;76.00;53.17;;;17.20;55.00;;;;;;5076374;28;20089;-67
2021/05/03 07:17:35;;;;;;;65.55;43.88;;;17.20;56.10;;;;;;5076615;28;20107;-67
2021/05/03 07:20:01;;;;;;;67.45;41.25;;;17.20;54.00;;;;;;5076361;28;20497;-67
2021/05/03 07:22:27;;;;;;;57.72;37.97;;;17.40;53.60;;;;;;5073777;28;20816;-68
2021/05/03 07:24:53;;;;;;;52.65;33.63;;;17.40;54.20;;;;;;5075088;28;20129;-68
2021/05/03 07:27:18;;;;;;;63.35;33.55;;;17.50;55.00;;;;;;5075518;28;20040;-67
2021/05/03 07:29:44;;;;;;;50.90;32.08;;;17.50;55.40;;;;;;5075254;28;20025;-68
2021/05/03 07:32:10;;;;;;;53.25;32.15;;;17.60;56.00;;;;;;5075168;28;20127;-70
2021/05/03 07:34:35;;;;;;;52.63;31.45;;;17.60;55.30;;;;;;5057274;28;20035;-67
2021/05/03 07:37:03;;;;;;;48.95;30.15;;;17.70;55.60;;;;;;5075545;28;20116;-68
2021/05/03 07:39:28;;;;;;;48.88;29.02;;;17.70;55.80;;;;;;5075531;28;20040;-69
2021/05/03 07:41:54;;;;;;;43.13;26.58;;;17.70;55.90;;;;;;5075778;28;20028;-69
2021/05/03 07:44:21;;;;;;;44.50;27.83;;;17.70;56.50;;;;;;5076158;28;20488;-69
2021/05/03 07:46:47;;;;;;;47.70;27.85;;;17.70;56.90;;;;;;5075609;28;20033;-68
2021/05/03 07:49:12;;;;;;;38.38;23.77;;;17.70;56.70;;;;;;5075771;28;20099;-67
2021/05/03 07:51:38;;;;;;;44.47;26.40;;;17.70;56.90;;;;;;5076031;28;20375;-67
2021/05/03 07:54:04;;;;;;;38.25;25.25;;;17.70;57.00;;;;;;5075641;28;20104;-68
2021/05/03 07:56:32;;;;;;;38.08;22.98;;;17.70;57.30;;;;;;5075645;28;20036;-67
2021/05/03 07:58:58;;;;;;;35.47;23.13;;;17.70;57.20;;;;;;5075479;28;20036;-67
2021/05/03 08:01:24;;;;;;;39.38;21.83;;;17.70;57.30;;;;;;5074177;28;20466;-67
2021/05/03 08:03:50;;;;;;;39.90;22.80;;;17.70;57.50;;;;;;5075273;28;20036;-67
2021/05/03 08:06:16;;;;;;;31.95;21.80;;;17.70;57.80;;;;;;5075732;28;20523;-69
2021/05/03 08:08:46;;;;;;;39.00;23.25;;;17.70;57.80;;;;;;5075271;28;20478;-68
2021/05/03 08:11:14;;;;;;;40.05;22.33;;;17.70;58.00;;;;;;5075540;28;20051;-68
2021/05/03 08:13:41;;;;;;;31.40;20.75;;;17.70;58.00;;;;;;5075019;28;20037;-69
2021/05/03 08:16:10;;;;;;;34.28;20.95;;;17.70;58.30;;;;;;5075271;28;20103;-68
2021/05/03 08:18:36;;;;;;;38.75;20.58;;;17.70;58.30;;;;;;5074965;28;20105;-68
2021/05/03 08:21:02;;;;;;;31.35;19.80;;;17.70;58.40;;;;;;5074805;28;20071;-68
2021/05/03 08:23:28;;;;;;;30.25;19.25;;;17.70;58.60;;;;;;5074790;28;20098;-68
2021/05/03 08:25:55;;;;;;;34.17;20.42;;;17.70;58.20;;;;;;5075003;28;20032;-68
2021/05/03 08:28:22;;;;;;;32.03;18.58;;;17.70;58.30;;;;;;5075243;28;20111;-68
2021/05/03 08:30:49;;;;;;;32.00;19.15;;;17.80;58.40;;;;;;5075013;28;20032;-68
2021/05/03 08:33:16;;;;;;;28.05;17.83;;;17.80;58.80;;;;;;5074964;28;20111;-68
2021/05/03 08:35:42;;;;;;;29.48;19.05;;;17.80;58.80;;;;;;5075164;28;20028;-68
2021/05/03 08:38:08;;;;;;;30.02;17.70;;;17.80;58.80;;;;;;5074736;28;20028;-68
2021/05/03 08:40:35;;;;;;;26.30;17.70;;;17.80;58.80;;;;;;5074384;28;20403;-68
2021/05/03 08:43:02;;;;;;;28.25;17.23;;;17.90;58.90;;;;;;5074586;28;20041;-68
2021/05/03 08:45:33;;;;;;;31.02;17.75;;;17.90;59.30;;;;;;5074536;28;20029;-68
2021/05/03 08:48:09;;;;;;;27.40;17.92;;;17.90;59.20;;;;;;5074586;28;20020;-68
2021/05/03 08:51:09;;;;;;;25.92;16.85;;;17.80;59.30;;;;;;5074822;28;20514;-68
2021/05/03 08:53:38;;;;;;;29.98;18.08;;;17.80;59.40;;;;;;5074070;28;20085;-68
2021/05/03 08:56:04;;;;;;;25.30;16.88;;;17.90;59.40;;;;;;5074545;28;20021;-68
2021/05/03 08:58:30;;;;;;;23.98;16.73;;;17.80;59.70;;;;;;5074367;28;20036;-68
2021/05/03 09:00:56;;;;;;;29.80;17.02;;;17.80;59.70;;;;;;5073970;28;20043;-68
2021/05/03 09:03:23;;;;;;;27.73;15.68;;;17.80;59.80;;;;;;5074173;28;20037;-68
2021/05/03 09:05:49;;;;;;;27.33;17.10;;;17.80;59.70;;;;;;5073880;28;20036;-68
2021/05/03 09:08:28;;;;;;;25.83;16.85;;;17.80;59.60;;;;;;5074201;28;20466;-68
2021/05/03 09:10:55;;;;;;;25.92;15.45;;;17.80;59.70;;;;;;5074093;28;20031;-68
2021/05/03 09:13:35;;;;;;;24.45;16.42;;;17.80;59.80;;;;;;5055920;28;20033;-68
2021/05/03 09:16:14;;;;;;;26.42;15.07;;;17.80;60.20;;;;;;5074166;28;20078;-68
2021/05/03 09:18:40;;;;;;;23.35;14.88;;;17.80;60.00;;;;;;5073892;28;20025;-67
2021/05/03 09:21:29;;;;;;;22.38;13.85;;;17.80;60.00;;;;;;5074059;28;20035;-67
2021/05/03 09:23:58;;;;;;;25.08;16.00;;;17.80;60.00;;;;;;5074071;28;20391;-68
2021/05/03 09:26:34;;;;;;;23.58;15.18;;;17.80;60.10;;;;;;5073736;28;20056;-68
2021/05/03 09:29:00;;;;;;;23.95;14.85;;;17.80;60.40;;;;;;5074200;28;20032;-67
2021/05/03 09:31:26;;;;;;;20.70;13.85;;;17.70;60.00;;;;;;5073852;28;20024;-67
2021/05/03 09:33:51;;;;;;;22.50;15.68;;;17.80;60.00;;;;;;5073803;28;20466;-68
2021/05/03 09:36:21;;;;;;;22.35;14.27;;;17.80;60.20;;;;;;5074059;28;20020;-67
2021/05/03 09:38:48;;;;;;;20.77;12.88;;;17.90;60.10;;;;;;5073470;28;20078;-67
2021/05/03 09:41:17;;;;;;;20.52;12.68;;;17.90;59.90;;;;;;5073712;28;20037;-67
2021/05/03 09:43:51;;;;;;;25.80;16.05;;;17.90;59.80;;;;;;5073511;28;20038;-67
2021/05/03 09:46:34;;;;;;;23.67;15.18;;;17.90;59.70;;;;;;5073759;28;20028;-67
2021/05/03 09:49:15;;;;;;;21.17;14.82;;;17.90;60.00;;;;;;5073349;28;20469;-67
2021/05/03 09:51:49;;;;;;;23.83;13.73;;;17.90;60.20;;;;;;5073710;28;20103;-67
2021/05/03 09:54:27;;;;;;;22.60;13.50;;;17.80;60.50;;;;;;5073256;28;20108;-67
2021/05/03 09:57:06;;;;;;;24.30;14.95;;;17.80;60.80;;;;;;5073549;28;20020;-68
2021/05/03 09:59:39;;;;;;;22.50;13.15;;;17.80;60.90;;;;;;5073372;28;20056;-67
2021/05/03 10:02:16;;;;;;;21.48;13.13;;;17.70;60.90;;;;;;5073421;28;20024;-67
2021/05/03 10:04:57;;;;;;;20.25;13.07;;;17.70;61.10;;;;;;5073339;28;20040;-67
2021/05/03 10:07:28;;;;;;;18.30;12.85;;;17.70;61.10;;;;;;5073967;28;20066;-67
2021/05/03 10:10:02;;;;;;;21.88;13.45;;;17.70;61.10;;;;;;5073741;28;20189;-67
2021/05/03 10:12:28;;;;;;;20.52;12.75;;;17.70;61.00;;;;;;5073449;28;20028;-67
2021/05/03 10:14:56;;;;;;;18.73;12.43;;;17.70;61.30;;;;;;5072847;28;20033;-67
2021/05/03 10:17:23;;;;;;;18.88;12.63;;;17.60;61.20;;;;;;5073225;28;20033;-67
2021/05/03 10:19:50;;;;;;;23.95;13.90;;;17.60;61.30;;;;;;5073078;28;20024;-67
2021/05/03 10:22:22;;;;;;;19.95;12.43;;;17.60;61.40;;;;;;5073249;28;20029;-67
2021/05/03 10:25:17;;;;;;;17.33;11.75;;;17.70;61.40;;;;;;5056034;28;20398;-67
2021/05/03 10:27:47;;;;;;;23.73;12.40;;;17.60;61.60;;;;;;5060257;28;20124;-67
2021/05/03 10:30:21;;;;;;;19.02;11.65;;;17.60;61.50;;;;;;5077200;28;20067;-67
2021/05/03 10:33:01;;;;;;;18.27;11.93;;;17.60;61.40;;;;;;5077678;28;20040;-67
2021/05/03 10:35:29;;;;;;;20.05;10.20;;;17.60;61.00;;;;;;5076935;28;20024;-66
2021/05/03 10:37:56;;;;;;;20.33;11.52;;;17.70;60.70;;;;;;5077115;28;20028;-66
2021/05/03 10:40:21;;;;;;;17.30;10.50;;;17.80;60.60;;;;;;5077041;28;20028;-66
2021/05/03 10:43:03;;;;;;;19.13;11.32;;;17.80;60.50;;;;;;5076922;28;20355;-66
2021/05/03 10:48:59;;;;;;;16.67;10.80;;;17.80;60.30;;;;;;5076973;28;20040;-67
2021/05/03 10:51:32;;;;;;;17.33;11.30;;;17.90;59.90;;;;;;5076047;28;20458;-67
2021/05/03 10:54:17;;;;;;;18.08;10.73;;;17.90;60.50;;;;;;5076965;28;20029;-66
2021/05/03 10:56:43;;;;;;;21.83;10.77;;;17.80;60.50;;;;;;5076799;28;20099;-66
2021/05/03 10:59:10;;;;;;;18.25;11.30;;;17.80;60.60;;;;;;5076663;28;20021;-67
2021/05/03 11:02:05;;;;;;;18.17;11.02;;;17.70;60.80;;;;;;5076541;28;20064;-66
2021/05/03 11:04:33;;;;;;;15.65;10.45;;;17.60;60.90;;;;;;5059448;28;20084;-67
2021/05/03 11:07:09;;;;;;;21.35;10.98;;;17.60;61.10;;;;;;5076314;28;20033;-66
2021/05/03 11:09:39;;;;;;;14.02;9.35;;;17.60;61.40;;;;;;5076384;28;20085;-67
2021/05/03 11:12:05;;;;;;;16.90;9.90;;;17.60;61.50;;;;;;5076633;28;20020;-67
2021/05/03 11:14:32;;;;;;;18.75;11.00;;;17.60;61.70;;;;;;5075976;28;20082;-66
2021/05/03 11:17:01;;;;;;;16.10;9.80;;;17.50;61.90;;;;;;5076358;28;20070;-66
2021/05/03 11:20:23;;;;;;;15.15;9.80;;;17.50;61.60;;;;;;5076330;28;20046;-66
2021/05/03 11:22:51;;;;;;;17.65;10.15;;;17.50;61.60;;;;;;5071299;28;20127;-66
2021/05/03 11:25:25;;;;;;;16.00;10.77;;;17.50;61.50;;;;;;5076110;28;20114;-67
2021/05/03 11:28:28;;;;;;;17.02;10.50;;;17.50;61.70;;;;;;5059240;28;20024;-66
2021/05/03 11:30:52;;;;;;;16.45;9.77;;;17.50;61.80;;;;;;5072866;28;20042;-65
2021/05/03 11:33:21;;;;;;;14.32;8.88;;;17.50;61.10;;;;;;5076002;28;20385;-65
2021/05/03 11:38:46;;;;;;;14.70;9.35;;;17.60;60.80;;;;;;5075911;28;20029;-66
2021/05/03 11:46:33;;;;;;;12.35;8.35;;;17.60;60.70;;;;;;5075846;28;20032;-65
2021/05/03 11:49:01;;;;;;;14.02;9.27;;;17.60;60.50;;;;;;5075549;28;20029;-67
2021/05/03 11:51:27;;;;;;;17.88;10.10;;;17.60;60.40;;;;;;5075715;28;20020;-65
2021/05/03 11:53:53;;;;;;;14.90;8.35;;;17.70;60.40;;;;;;5075613;28;20116;-66
2021/05/03 11:56:27;;;;;;;13.27;8.00;;;17.70;60.40;;;;;;5075459;28;20028;-66
2021/05/03 11:58:57;;;;;;;15.60;9.13;;;17.70;60.20;;;;;;5075589;28;20112;-67
2021/05/03 12:01:26;;;;;;;15.38;8.60;;;17.70;60.40;;;;;;5075633;28;20032;-67
2021/05/03 12:03:59;;;;;;;14.48;8.13;;;17.60;60.70;;;;;;5075485;28;20071;-67
2021/05/03 12:06:42;;;;;;;11.63;7.55;;;17.60;60.90;;;;;;5075938;28;20052;-66
2021/05/03 12:09:12;;;;;;;15.13;9.55;;;17.60;60.70;;;;;;5075162;28;20508;-67
2021/05/03 12:11:39;;;;;;;;;;;17.50;60.90;;;;;;5075748;28;20037;-67
2021/05/03 12:14:06;;;;;;;13.57;8.48;;;17.50;60.90;;;;;;5075035;28;19904;-67
2021/05/03 12:16:42;;;;;;;15.77;7.93;;;17.50;61.20;;;;;;5075043;28;20467;-66
2021/05/03 12:19:18;;;;;;;14.20;7.75;;;17.50;61.20;;;;;;5075677;28;20035;-67
2021/05/03 12:21:44;;;;;;;10.82;7.80;;;17.40;61.40;;;;;;5074946;28;20025;-67
2021/05/03 12:24:15;;;;;;;13.57;8.25;;;17.40;61.40;;;;;;5074581;28;20052;-67
2021/05/03 12:26:53;;;;;;;;;;;17.40;61.60;;;;;;5075121;28;20017;-67
2021/05/03 12:29:19;;;;;;;12.35;7.85;;;17.40;61.70;;;;;;5075008;28;19912;-67
2021/05/03 12:31:45;;;;;;;11.80;7.68;;;17.40;61.50;;;;;;5074997;28;20417;-67
2021/05/03 12:34:18;;;;;;;13.02;8.23;;;17.40;61.40;;;;;;5074857;28;20032;-67
2021/05/03 12:37:10;;;;;;;11.40;6.95;;;17.40;61.40;;;;;;5074664;28;20036;-67
2021/05/03 12:39:41;;;;;;;13.02;8.82;;;17.40;61.60;;;;;;5074699;28;20036;-65
2021/05/03 12:42:17;;;;;;;11.35;7.85;;;17.40;61.80;;;;;;5074537;28;20020;-65
2021/05/03 12:44:58;;;;;;;12.02;7.60;;;17.40;62.60;;;;;;5074606;28;20490;-67
2021/05/03 12:50:03;;;;;;;11.50;7.97;;;17.40;61.50;;;;;;5074567;28;20020;-67
2021/05/03 12:52:34;;;;;;;12.98;7.10;;;17.50;61.40;;;;;;5074657;28;20039;-67
2021/05/03 12:55:09;;;;;;;13.77;8.18;;;17.50;61.10;;;;;;5074427;28;20032;-67
2021/05/03 12:57:52;;;;;;;11.38;7.65;;;17.50;61.50;;;;;;5074092;28;20028;-68
2021/05/03 13:00:24;;;;;;;12.18;7.15;;;17.50;61.40;;;;;;5074297;28;20028;-67
2021/05/03 13:03:07;;;;;;;11.75;7.43;;;17.50;61.00;;;;;;5074422;28;20036;-67